createdAt,value
2017-10-03T00:00:40.437Z,0
2017-10-03T00:01:40.399Z,0
2017-10-03T00:02:40.385Z,0
2017-10-03T00:03:40.715Z,0
2017-10-03T00:04:40.429Z,0
2017-10-03T00:05:40.450Z,0
2017-10-03T00:06:47.250Z,0
2017-10-03T00:07:40.493Z,0
2017-10-03T00:08:40.824Z,0
2017-10-03T00:09:40.533Z,0
2017-10-03T00:10:40.561Z,0
2017-10-03T00:11:40.581Z,0
2017-10-03T00:12:40.916Z,0
2017-10-03T00:13:40.624Z,0
2017-10-03T00:14:40.646Z,0
2017-10-03T00:15:40.687Z,0
2017-10-03T00:16:40.748Z,0
2017-10-03T00:17:40.716Z,0
2017-10-03T00:18:40.737Z,0
2017-10-03T00:19:40.755Z,0
2017-10-03T00:20:40.788Z,0
2017-10-03T00:21:40.810Z,0
2017-10-03T00:22:40.835Z,0
2017-10-03T00:23:40.845Z,0
2017-10-03T00:24:40.861Z,0
2017-10-03T00:25:41.208Z,0
2017-10-03T00:26:40.911Z,0
2017-10-03T00:27:40.932Z,0
2017-10-03T00:28:40.954Z,0
2017-10-03T00:29:40.983Z,0
2017-10-03T00:30:41.199Z,0
2017-10-03T00:31:41.079Z,0
2017-10-03T00:32:41.050Z,0
2017-10-03T00:33:41.058Z,0
2017-10-03T00:34:41.086Z,0
2017-10-03T00:35:41.110Z,0
2017-10-03T00:36:41.132Z,0
2017-10-03T00:37:41.148Z,0
2017-10-03T00:38:41.478Z,0
2017-10-03T00:39:41.203Z,0
2017-10-03T00:40:41.539Z,0
2017-10-03T00:41:41.542Z,0
2017-10-03T00:42:41.875Z,0
2017-10-03T00:43:41.275Z,0
2017-10-03T00:44:41.624Z,0
2017-10-03T00:45:41.317Z,0
2017-10-03T00:46:41.353Z,0
2017-10-03T00:47:41.678Z,0
2017-10-03T00:48:41.721Z,0
2017-10-03T00:49:41.408Z,0
2017-10-03T00:50:41.484Z,0
2017-10-03T00:51:41.776Z,0
2017-10-03T00:52:41.474Z,0
2017-10-03T00:53:41.803Z,0
2017-10-03T00:54:41.519Z,0
2017-10-03T00:55:41.537Z,0
2017-10-03T00:56:41.556Z,0
2017-10-03T00:57:41.577Z,0
2017-10-03T00:58:41.603Z,0
2017-10-03T00:59:41.940Z,0
2017-10-03T01:00:41.641Z,0
2017-10-03T01:01:41.978Z,0
2017-10-03T01:02:42.010Z,0
2017-10-03T01:03:42.012Z,0
2017-10-03T01:04:41.732Z,0
2017-10-03T01:05:41.748Z,0
2017-10-03T01:06:41.782Z,0
2017-10-03T01:07:42.214Z,0
2017-10-03T01:08:42.125Z,0
2017-10-03T01:09:41.837Z,0
2017-10-03T01:10:41.865Z,0
2017-10-03T01:11:41.873Z,0
2017-10-03T01:12:41.902Z,0
2017-10-03T01:13:41.919Z,0
2017-10-03T01:14:41.943Z,0
2017-10-03T01:15:41.975Z,0
2017-10-03T01:16:41.986Z,0
2017-10-03T01:17:42.026Z,0
2017-10-03T01:18:42.032Z,0
2017-10-03T01:19:42.372Z,0
2017-10-03T01:20:42.070Z,0
2017-10-03T01:21:42.090Z,0
2017-10-03T01:22:42.156Z,0
2017-10-03T01:23:42.138Z,0
2017-10-03T01:24:42.160Z,0
2017-10-03T01:25:42.185Z,0
2017-10-03T01:26:42.212Z,0
2017-10-03T01:27:42.236Z,0
2017-10-03T01:28:42.247Z,0
2017-10-03T01:29:42.597Z,0
2017-10-03T01:30:42.288Z,0
2017-10-03T01:31:44.382Z,0
2017-10-03T01:32:43.545Z,0
2017-10-03T01:33:42.354Z,0
2017-10-03T01:34:42.371Z,0
2017-10-03T01:35:42.400Z,0
2017-10-03T01:36:42.418Z,0
2017-10-03T01:37:42.493Z,0
2017-10-03T01:38:42.464Z,0
2017-10-03T01:39:42.484Z,0
2017-10-03T01:40:42.819Z,0
2017-10-03T01:41:42.523Z,0
2017-10-03T01:42:42.857Z,0
2017-10-03T01:43:42.571Z,0
2017-10-03T01:44:42.593Z,0
2017-10-03T01:45:42.932Z,0
2017-10-03T01:46:42.643Z,0
2017-10-03T01:47:42.654Z,0
2017-10-03T01:48:42.983Z,0
2017-10-03T01:49:42.694Z,0
2017-10-03T01:50:43.026Z,0
2017-10-03T01:51:42.739Z,0
2017-10-03T01:52:42.777Z,0
2017-10-03T01:53:42.787Z,0
2017-10-03T01:54:42.862Z,0
2017-10-03T01:55:42.824Z,0
2017-10-03T01:56:43.176Z,0
2017-10-03T01:57:43.189Z,0
2017-10-03T01:58:42.896Z,0
2017-10-03T01:59:42.913Z,0
2017-10-03T02:00:42.934Z,0
2017-10-03T02:01:42.962Z,0
2017-10-03T02:02:42.995Z,0
2017-10-03T02:03:43.000Z,0
2017-10-03T02:04:43.227Z,0
2017-10-03T02:05:43.048Z,0
2017-10-03T02:06:43.070Z,0
2017-10-03T02:07:43.086Z,0
2017-10-03T02:08:43.108Z,0
2017-10-03T02:09:43.144Z,0
2017-10-03T02:10:43.149Z,0
2017-10-03T02:11:43.482Z,0
2017-10-03T02:12:43.509Z,0
2017-10-03T02:13:43.218Z,0
2017-10-03T02:14:43.242Z,0
2017-10-03T02:15:43.281Z,0
2017-10-03T02:16:43.598Z,0
2017-10-03T02:17:43.309Z,0
2017-10-03T02:18:43.325Z,0
2017-10-03T02:19:43.343Z,0
2017-10-03T02:20:43.366Z,0
2017-10-03T02:21:43.391Z,0
2017-10-03T02:22:43.451Z,0
2017-10-03T02:23:43.429Z,0
2017-10-03T02:24:43.452Z,0
2017-10-03T02:25:44.106Z,0
2017-10-03T02:26:43.498Z,0
2017-10-03T02:27:44.569Z,0
2017-10-03T02:28:43.541Z,0
2017-10-03T02:29:43.570Z,0
2017-10-03T02:30:43.595Z,0
2017-10-03T02:31:43.926Z,0
2017-10-03T02:32:43.654Z,0
2017-10-03T02:33:43.648Z,0
2017-10-03T02:34:43.989Z,0
2017-10-03T02:35:43.692Z,0
2017-10-03T02:36:43.716Z,0
2017-10-03T02:37:43.798Z,0
2017-10-03T02:38:43.756Z,0
2017-10-03T02:39:43.786Z,0
2017-10-03T02:40:43.809Z,0
2017-10-03T02:41:43.829Z,0
2017-10-03T02:42:46.248Z,0
2017-10-03T02:43:44.176Z,0
2017-10-03T02:44:43.920Z,0
2017-10-03T02:45:44.245Z,0
2017-10-03T02:46:43.948Z,0
2017-10-03T02:47:43.958Z,0
2017-10-03T02:48:43.986Z,0
2017-10-03T02:49:44.322Z,0
2017-10-03T02:50:44.025Z,0
2017-10-03T02:51:44.049Z,0
2017-10-03T02:52:44.067Z,0
2017-10-03T02:53:44.412Z,0
2017-10-03T02:54:44.118Z,0
2017-10-03T02:55:44.155Z,0
2017-10-03T02:56:44.470Z,0
2017-10-03T02:57:44.175Z,0
2017-10-03T02:58:44.246Z,0
2017-10-03T02:59:44.226Z,0
2017-10-03T03:00:44.249Z,0
2017-10-03T03:01:44.277Z,0
2017-10-03T03:02:44.289Z,0
2017-10-03T03:03:44.312Z,0
2017-10-03T03:04:44.346Z,0
2017-10-03T03:05:44.358Z,0
2017-10-03T03:06:44.377Z,0
2017-10-03T03:07:44.399Z,0
2017-10-03T03:08:44.748Z,0
2017-10-03T03:09:44.439Z,0
2017-10-03T03:10:44.466Z,0
2017-10-03T03:11:44.488Z,0
2017-10-03T03:12:44.510Z,0
2017-10-03T03:13:44.583Z,0
2017-10-03T03:14:44.564Z,0
2017-10-03T03:15:44.585Z,0
2017-10-03T03:16:44.601Z,0
2017-10-03T03:17:44.626Z,0
2017-10-03T03:18:44.657Z,0
2017-10-03T03:19:44.677Z,0
2017-10-03T03:20:44.690Z,0
2017-10-03T03:21:44.720Z,0
2017-10-03T03:22:45.064Z,0
2017-10-03T03:23:44.764Z,0
2017-10-03T03:24:44.796Z,0
2017-10-03T03:25:44.807Z,0
2017-10-03T03:26:44.823Z,0
2017-10-03T03:27:44.844Z,0
2017-10-03T03:28:44.923Z,0
2017-10-03T03:29:44.892Z,0
2017-10-03T03:30:45.555Z,0
2017-10-03T03:31:44.939Z,0
2017-10-03T03:32:45.273Z,0
2017-10-03T03:33:45.000Z,0
2017-10-03T03:34:45.316Z,0
2017-10-03T03:35:45.043Z,0
2017-10-03T03:36:45.048Z,0
2017-10-03T03:37:45.073Z,0
2017-10-03T03:38:45.102Z,0
2017-10-03T03:39:45.123Z,0
2017-10-03T03:40:45.139Z,0
2017-10-03T03:41:45.163Z,0
2017-10-03T03:42:45.181Z,0
2017-10-03T03:43:45.201Z,0
2017-10-03T03:44:45.231Z,0
2017-10-03T03:45:45.251Z,0
2017-10-03T03:46:45.271Z,0
2017-10-03T03:47:45.397Z,0
2017-10-03T03:48:45.339Z,0
2017-10-03T03:49:45.359Z,0
2017-10-03T03:50:45.361Z,0
2017-10-03T03:51:45.386Z,0
2017-10-03T03:52:45.419Z,0
2017-10-03T03:53:46.067Z,0
2017-10-03T03:54:45.447Z,0
2017-10-03T03:55:45.484Z,0
2017-10-03T03:56:45.492Z,0
2017-10-03T03:57:45.517Z,0
2017-10-03T03:58:45.541Z,0
2017-10-03T03:59:45.870Z,0
2017-10-03T04:00:45.583Z,0
2017-10-03T04:01:45.606Z,0
2017-10-03T04:02:45.682Z,0
2017-10-03T04:03:45.654Z,0
2017-10-03T04:04:45.675Z,0
2017-10-03T04:05:45.710Z,0
2017-10-03T04:06:45.721Z,0
2017-10-03T04:07:45.742Z,0
2017-10-03T04:08:45.768Z,0
2017-10-03T04:09:45.784Z,0
2017-10-03T04:10:45.809Z,0
2017-10-03T04:11:45.840Z,0
2017-10-03T04:12:45.850Z,0
2017-10-03T04:13:45.873Z,0
2017-10-03T04:14:45.900Z,0
2017-10-03T04:15:45.918Z,0
2017-10-03T04:16:45.941Z,0
2017-10-03T04:17:45.964Z,0
2017-10-03T04:18:46.033Z,0
2017-10-03T04:19:46.010Z,0
2017-10-03T04:20:46.032Z,0
2017-10-03T04:21:46.049Z,0
2017-10-03T04:22:46.080Z,0
2017-10-03T04:23:46.403Z,0
2017-10-03T04:24:46.140Z,0
2017-10-03T04:25:46.142Z,0
2017-10-03T04:26:46.160Z,0
2017-10-03T04:27:46.187Z,0
2017-10-03T04:28:46.215Z,0
2017-10-03T04:29:46.225Z,0
2017-10-03T04:30:46.250Z,0
2017-10-03T04:31:46.274Z,0
2017-10-03T04:32:46.296Z,0
2017-10-03T04:33:46.362Z,0
2017-10-03T04:34:46.340Z,0
2017-10-03T04:35:46.379Z,0
2017-10-03T04:36:46.383Z,0
2017-10-03T04:37:46.398Z,0
2017-10-03T04:38:46.737Z,0
2017-10-03T04:39:46.454Z,0
2017-10-03T04:40:46.465Z,0
2017-10-03T04:41:46.487Z,0
2017-10-03T04:42:46.510Z,0
2017-10-03T04:43:46.537Z,0
2017-10-03T04:44:46.557Z,0
2017-10-03T04:45:46.578Z,0
2017-10-03T04:46:46.921Z,0
2017-10-03T04:47:46.621Z,0
2017-10-03T04:48:46.643Z,0
2017-10-03T04:49:46.662Z,0
2017-10-03T04:50:46.749Z,0
2017-10-03T04:51:47.022Z,0
2017-10-03T04:52:46.763Z,0
2017-10-03T04:53:47.085Z,0
2017-10-03T04:54:46.784Z,0
2017-10-03T04:55:47.112Z,0
2017-10-03T04:56:46.822Z,0
2017-10-03T04:57:46.843Z,0
2017-10-03T04:58:47.195Z,0
2017-10-03T04:59:46.888Z,0
2017-10-03T05:00:47.217Z,0
2017-10-03T05:01:46.930Z,0
2017-10-03T05:02:47.290Z,0
2017-10-03T05:03:46.976Z,0
2017-10-03T05:04:47.018Z,0
2017-10-03T05:05:47.035Z,0
2017-10-03T05:06:47.415Z,0
2017-10-03T05:07:47.069Z,0
2017-10-03T05:08:47.097Z,0
2017-10-03T05:09:47.108Z,0
2017-10-03T05:10:47.137Z,0
2017-10-03T05:11:47.780Z,0
2017-10-03T05:12:47.181Z,0
2017-10-03T05:13:47.206Z,0
2017-10-03T05:14:47.218Z,0
2017-10-03T05:15:47.266Z,0
2017-10-03T05:16:47.268Z,0
2017-10-03T05:17:47.289Z,0
2017-10-03T05:18:47.313Z,0
2017-10-03T05:19:47.334Z,0
2017-10-03T05:20:47.370Z,0
2017-10-03T05:21:47.384Z,0
2017-10-03T05:22:47.403Z,0
2017-10-03T05:23:47.627Z,0
2017-10-03T05:24:47.445Z,0
2017-10-03T05:25:47.470Z,0
2017-10-03T05:26:47.801Z,0
2017-10-03T05:27:47.524Z,0
2017-10-03T05:28:47.536Z,0
2017-10-03T05:29:47.863Z,0
2017-10-03T05:30:47.887Z,0
2017-10-03T05:31:47.608Z,0
2017-10-03T05:32:47.627Z,0
2017-10-03T05:33:47.650Z,0
2017-10-03T05:34:47.668Z,0
2017-10-03T05:35:47.692Z,0
2017-10-03T05:36:48.028Z,5
2017-10-03T05:37:48.044Z,5
2017-10-03T05:38:47.769Z,5
2017-10-03T05:39:47.834Z,5
2017-10-03T05:40:47.808Z,5
2017-10-03T05:41:47.823Z,5
2017-10-03T05:42:47.837Z,5
2017-10-03T05:43:47.864Z,5
2017-10-03T05:44:47.889Z,5
2017-10-03T05:45:47.910Z,5
2017-10-03T05:46:47.929Z,5
2017-10-03T05:47:47.971Z,5
2017-10-03T05:48:47.978Z,5
2017-10-03T05:49:48.007Z,5
2017-10-03T05:50:48.030Z,5
2017-10-03T05:51:48.049Z,5
2017-10-03T05:52:48.079Z,5
2017-10-03T05:53:48.082Z,10
2017-10-03T05:54:48.111Z,10
2017-10-03T05:55:48.443Z,10
2017-10-03T05:56:48.462Z,10
2017-10-03T05:57:48.538Z,10
2017-10-03T05:58:48.205Z,10
2017-10-03T05:59:48.533Z,15
2017-10-03T06:00:48.244Z,15
2017-10-03T06:01:48.273Z,15
2017-10-03T06:02:48.303Z,15
2017-10-03T06:03:48.326Z,15
2017-10-03T06:04:48.534Z,15
2017-10-03T06:05:48.364Z,10
2017-10-03T06:06:48.375Z,10
2017-10-03T06:07:48.400Z,15
2017-10-03T06:08:48.441Z,15
2017-10-03T06:09:48.450Z,10
2017-10-03T06:10:48.470Z,10
2017-10-03T06:11:48.809Z,10
2017-10-03T06:12:48.569Z,15
2017-10-03T06:13:48.531Z,15
2017-10-03T06:14:48.576Z,15
2017-10-03T06:15:48.594Z,15
2017-10-03T06:16:48.612Z,10
2017-10-03T06:17:48.937Z,10
2017-10-03T06:18:48.653Z,10
2017-10-03T06:19:48.669Z,10
2017-10-03T06:20:48.712Z,10
2017-10-03T06:21:48.709Z,10
2017-10-03T06:22:48.740Z,10
2017-10-03T06:23:49.087Z,10
2017-10-03T06:24:48.791Z,15
2017-10-03T06:25:49.131Z,15
2017-10-03T06:26:48.830Z,15
2017-10-03T06:27:48.850Z,15
2017-10-03T06:28:48.870Z,15
2017-10-03T06:29:48.899Z,5
2017-10-03T06:30:49.232Z,0
2017-10-03T06:31:48.992Z,0
2017-10-03T06:32:48.965Z,0
2017-10-03T06:33:48.988Z,5
2017-10-03T06:34:49.012Z,5
2017-10-03T06:35:49.024Z,10
2017-10-03T06:36:49.052Z,15
2017-10-03T06:37:49.079Z,10
2017-10-03T06:38:49.411Z,10
2017-10-03T06:39:49.111Z,15
2017-10-03T06:40:49.454Z,20
2017-10-03T06:41:49.156Z,15
2017-10-03T06:42:49.182Z,15
2017-10-03T06:43:49.206Z,15
2017-10-03T06:44:49.537Z,20
2017-10-03T06:45:49.251Z,20
2017-10-03T06:46:49.333Z,20
2017-10-03T06:47:49.278Z,25
2017-10-03T06:48:49.305Z,40
2017-10-03T06:49:49.335Z,45
2017-10-03T06:50:49.348Z,45
2017-10-03T06:51:49.370Z,45
2017-10-03T06:52:49.504Z,40
2017-10-03T06:53:49.417Z,40
2017-10-03T06:54:49.455Z,40
2017-10-03T06:55:49.454Z,45
2017-10-03T06:56:49.467Z,45
2017-10-03T06:57:49.494Z,45
2017-10-03T06:58:49.510Z,35
2017-10-03T06:59:49.533Z,35
2017-10-03T07:00:49.545Z,35
2017-10-03T07:01:49.628Z,40
2017-10-03T07:02:49.596Z,35
2017-10-03T07:03:49.612Z,40
2017-10-03T07:04:49.626Z,50
2017-10-03T07:05:49.653Z,50
2017-10-03T07:06:49.670Z,55
2017-10-03T07:07:49.713Z,60
2017-10-03T07:08:49.713Z,55
2017-10-03T07:09:49.734Z,50
2017-10-03T07:10:49.753Z,45
2017-10-03T07:11:49.765Z,40
2017-10-03T07:12:50.112Z,45
2017-10-03T07:13:49.812Z,45
2017-10-03T07:14:49.828Z,50
2017-10-03T07:15:49.852Z,50
2017-10-03T07:16:49.917Z,45
2017-10-03T07:17:49.899Z,40
2017-10-03T07:18:49.901Z,35
2017-10-03T07:19:50.259Z,35
2017-10-03T07:20:50.258Z,40
2017-10-03T07:21:50.289Z,40
2017-10-03T07:22:49.987Z,40
2017-10-03T07:23:50.317Z,40
2017-10-03T07:24:50.044Z,35
2017-10-03T07:25:50.063Z,35
2017-10-03T07:26:50.075Z,35
2017-10-03T07:27:50.085Z,40
2017-10-03T07:28:50.111Z,40
2017-10-03T07:29:50.454Z,35
2017-10-03T07:30:50.144Z,40
2017-10-03T07:31:50.475Z,55
2017-10-03T07:32:50.427Z,60
2017-10-03T07:33:50.522Z,60
2017-10-03T07:34:50.230Z,55
2017-10-03T07:35:50.242Z,60
2017-10-03T07:36:50.263Z,60
2017-10-03T07:37:50.608Z,60
2017-10-03T07:38:50.316Z,60
2017-10-03T07:39:50.681Z,60
2017-10-03T07:40:50.348Z,60
2017-10-03T07:41:50.374Z,55
2017-10-03T07:42:50.385Z,55
2017-10-03T07:43:50.727Z,60
2017-10-03T07:44:50.440Z,65
2017-10-03T07:45:50.446Z,70
2017-10-03T07:46:50.471Z,75
2017-10-03T07:47:50.496Z,85
2017-10-03T07:48:50.566Z,90
2017-10-03T07:49:50.533Z,95
2017-10-03T07:50:50.546Z,90
2017-10-03T07:51:50.569Z,90
2017-10-03T07:52:50.599Z,85
2017-10-03T07:53:50.615Z,75
2017-10-03T07:54:50.630Z,75
2017-10-03T07:55:50.658Z,75
2017-10-03T07:56:50.659Z,80
2017-10-03T07:57:50.695Z,85
2017-10-03T07:58:50.710Z,90
2017-10-03T07:59:50.721Z,90
2017-10-03T08:00:50.752Z,105
2017-10-03T08:01:50.762Z,110
2017-10-03T08:02:50.813Z,125
2017-10-03T08:03:50.806Z,120
2017-10-03T08:04:50.834Z,110
2017-10-03T08:05:50.894Z,105
2017-10-03T08:06:50.869Z,90
2017-10-03T08:07:50.894Z,85
2017-10-03T08:08:50.906Z,90
2017-10-03T08:09:50.976Z,95
2017-10-03T08:10:50.943Z,90
2017-10-03T08:11:50.964Z,105
2017-10-03T08:12:50.983Z,120
2017-10-03T08:13:51.001Z,140
2017-10-03T08:14:51.023Z,130
2017-10-03T08:15:51.048Z,140
2017-10-03T08:16:51.066Z,135
2017-10-03T08:17:51.086Z,140
2017-10-03T08:18:51.110Z,125
2017-10-03T08:19:51.126Z,110
2017-10-03T08:20:51.144Z,105
2017-10-03T08:21:51.162Z,100
2017-10-03T08:22:51.184Z,95
2017-10-03T08:23:51.210Z,95
2017-10-03T08:24:51.540Z,90
2017-10-03T08:25:51.560Z,90
2017-10-03T08:26:51.270Z,95
2017-10-03T08:27:51.290Z,95
2017-10-03T08:28:51.303Z,100
2017-10-03T08:29:51.334Z,110
2017-10-03T08:30:51.342Z,115
2017-10-03T08:31:51.669Z,120
2017-10-03T08:32:51.387Z,110
2017-10-03T08:33:51.419Z,95
2017-10-03T08:34:51.418Z,90
2017-10-03T08:35:51.441Z,85
2017-10-03T08:36:51.462Z,80
2017-10-03T08:37:51.793Z,75
2017-10-03T08:38:51.871Z,75
2017-10-03T08:39:51.538Z,75
2017-10-03T08:40:51.539Z,75
2017-10-03T08:41:51.560Z,75
2017-10-03T08:42:51.582Z,70
2017-10-03T08:43:51.604Z,70
2017-10-03T08:44:51.932Z,65
2017-10-03T08:45:51.643Z,65
2017-10-03T08:46:51.861Z,65
2017-10-03T08:47:51.682Z,65
2017-10-03T08:48:51.704Z,65
2017-10-03T08:49:51.728Z,65
2017-10-03T08:50:52.046Z,65
2017-10-03T08:51:55.116Z,65
2017-10-03T08:52:53.490Z,60
2017-10-03T08:53:56.140Z,60
2017-10-03T08:54:54.783Z,60
2017-10-03T08:55:53.851Z,60
2017-10-03T08:56:53.975Z,65
2017-10-03T08:57:52.481Z,70
2017-10-03T08:58:54.372Z,65
2017-10-03T08:59:53.496Z,60
2017-10-03T09:00:54.385Z,60
2017-10-03T09:01:53.831Z,55
2017-10-03T09:02:54.120Z,55
2017-10-03T09:03:53.791Z,55
2017-10-03T09:04:56.210Z,50
2017-10-03T09:05:53.415Z,50
2017-10-03T09:06:54.414Z,50
2017-10-03T09:07:52.832Z,50
2017-10-03T09:08:52.594Z,50
2017-10-03T09:09:53.401Z,50
2017-10-03T09:10:54.690Z,50
2017-10-03T09:11:53.550Z,45
2017-10-03T09:12:54.044Z,45
2017-10-03T09:13:52.913Z,45
2017-10-03T09:14:52.213Z,40
2017-10-03T09:15:52.249Z,40
2017-10-03T09:16:52.246Z,35
2017-10-03T09:17:52.611Z,35
2017-10-03T09:18:52.605Z,30
2017-10-03T09:19:52.316Z,30
2017-10-03T09:20:52.325Z,25
2017-10-03T09:21:52.369Z,20
2017-10-03T09:22:52.398Z,25
2017-10-03T09:23:52.379Z,25
2017-10-03T09:24:52.402Z,30
2017-10-03T09:25:52.416Z,30
2017-10-03T09:26:52.494Z,30
2017-10-03T09:27:52.803Z,30
2017-10-03T09:28:52.479Z,35
2017-10-03T09:29:53.077Z,35
2017-10-03T09:30:53.142Z,45
2017-10-03T09:31:53.149Z,55
2017-10-03T09:32:52.572Z,65
2017-10-03T09:33:54.343Z,75
2017-10-03T09:34:52.590Z,75
2017-10-03T09:35:52.736Z,80
2017-10-03T09:36:52.850Z,90
2017-10-03T09:37:52.686Z,95
2017-10-03T09:38:52.663Z,95
2017-10-03T09:39:52.812Z,95
2017-10-03T09:40:52.739Z,90
2017-10-03T09:41:53.291Z,65
2017-10-03T09:42:53.771Z,40
2017-10-03T09:43:54.643Z,30
2017-10-03T09:44:53.330Z,30
2017-10-03T09:45:53.315Z,30
2017-10-03T09:46:53.496Z,30
2017-10-03T09:47:53.754Z,35
2017-10-03T09:48:54.049Z,35
2017-10-03T09:49:53.530Z,35
2017-10-03T09:50:53.566Z,30
2017-10-03T09:51:53.394Z,30
2017-10-03T09:52:55.047Z,35
2017-10-03T09:53:53.499Z,45
2017-10-03T09:54:54.052Z,50
2017-10-03T09:55:54.244Z,50
2017-10-03T09:56:54.003Z,50
2017-10-03T09:57:54.067Z,60
2017-10-03T09:58:54.041Z,85
2017-10-03T09:59:56.384Z,105
2017-10-03T10:00:56.083Z,110
2017-10-03T10:01:54.124Z,110
2017-10-03T10:02:55.176Z,110
2017-10-03T10:03:55.045Z,120
2017-10-03T10:04:53.758Z,130
2017-10-03T10:05:53.778Z,130
2017-10-03T10:06:53.950Z,120
2017-10-03T10:07:53.812Z,110
2017-10-03T10:08:53.927Z,105
2017-10-03T10:09:54.358Z,110
2017-10-03T10:10:53.982Z,125
2017-10-03T10:11:54.717Z,135
2017-10-03T10:12:53.311Z,140
2017-10-03T10:13:54.211Z,145
2017-10-03T10:14:53.342Z,150
2017-10-03T10:15:53.515Z,150
2017-10-03T10:16:53.817Z,155
2017-10-03T10:17:53.424Z,145
2017-10-03T10:18:53.434Z,130
2017-10-03T10:19:53.448Z,135
2017-10-03T10:20:53.511Z,145
2017-10-03T10:21:53.475Z,140
2017-10-03T10:22:53.502Z,135
2017-10-03T10:23:53.828Z,125
2017-10-03T10:24:53.546Z,125
2017-10-03T10:25:54.124Z,140
2017-10-03T10:26:53.579Z,130
2017-10-03T10:27:53.598Z,90
2017-10-03T10:28:53.616Z,90
2017-10-03T10:29:53.642Z,100
2017-10-03T10:30:53.701Z,105
2017-10-03T10:31:54.020Z,85
2017-10-03T10:32:54.041Z,80
2017-10-03T10:33:53.773Z,85
2017-10-03T10:34:53.741Z,95
2017-10-03T10:35:54.148Z,110
2017-10-03T10:36:54.133Z,135
2017-10-03T10:37:53.858Z,160
2017-10-03T10:38:53.833Z,175
2017-10-03T10:39:54.149Z,230
2017-10-03T10:40:53.863Z,305
2017-10-03T10:41:53.877Z,395
2017-10-03T10:42:53.898Z,470
2017-10-03T10:43:53.908Z,410
2017-10-03T10:44:53.928Z,440
2017-10-03T10:45:54.313Z,440
2017-10-03T10:46:54.313Z,495
2017-10-03T10:47:54.044Z,495
2017-10-03T10:48:54.012Z,375
2017-10-03T10:49:54.033Z,290
2017-10-03T10:50:54.081Z,270
2017-10-03T10:51:54.075Z,280
2017-10-03T10:52:54.135Z,320
2017-10-03T10:53:54.437Z,355
2017-10-03T10:54:54.139Z,450
2017-10-03T10:55:54.155Z,605
2017-10-03T10:56:54.197Z,425
2017-10-03T10:57:54.195Z,550
2017-10-03T10:58:54.222Z,1165
2017-10-03T10:59:54.255Z,1280
2017-10-03T11:00:54.381Z,590
2017-10-03T11:01:54.344Z,545
2017-10-03T11:02:54.314Z,395
2017-10-03T11:03:56.105Z,255
2017-10-03T11:04:55.393Z,235
2017-10-03T11:05:54.802Z,240
2017-10-03T11:06:55.208Z,235
2017-10-03T11:07:55.742Z,245
2017-10-03T11:08:54.624Z,225
2017-10-03T11:09:55.801Z,225
2017-10-03T11:10:54.740Z,265
2017-10-03T11:11:54.562Z,315
2017-10-03T11:12:54.802Z,295
2017-10-03T11:13:54.975Z,340
2017-10-03T11:14:54.664Z,285
2017-10-03T11:15:54.736Z,255
2017-10-03T11:16:55.268Z,325
2017-10-03T11:17:54.684Z,290
2017-10-03T11:18:55.316Z,320
2017-10-03T11:19:55.517Z,375
2017-10-03T11:20:55.871Z,625
2017-10-03T11:21:54.814Z,295
2017-10-03T11:22:54.801Z,370
2017-10-03T11:23:54.843Z,430
2017-10-03T11:24:55.303Z,320
2017-10-03T11:25:55.219Z,360
2017-10-03T11:26:55.411Z,235
2017-10-03T11:27:54.987Z,230
2017-10-03T11:28:54.960Z,240
2017-10-03T11:29:55.506Z,245
2017-10-03T11:30:55.128Z,280
2017-10-03T11:31:55.497Z,490
2017-10-03T11:32:55.320Z,630
2017-10-03T11:33:55.758Z,810
2017-10-03T11:34:55.393Z,700
2017-10-03T11:35:56.022Z,755
2017-10-03T11:36:56.254Z,860
2017-10-03T11:37:55.661Z,820
2017-10-03T11:38:58.330Z,500
2017-10-03T11:39:55.280Z,430
2017-10-03T11:40:57.661Z,340
2017-10-03T11:41:56.161Z,220
2017-10-03T11:42:55.365Z,165
2017-10-03T11:43:55.308Z,140
2017-10-03T11:44:55.371Z,140
2017-10-03T11:45:55.563Z,120
2017-10-03T11:46:58.947Z,125
2017-10-03T11:47:55.997Z,150
2017-10-03T11:48:55.485Z,165
2017-10-03T11:49:56.359Z,195
2017-10-03T11:50:56.969Z,210
2017-10-03T11:51:55.594Z,205
2017-10-03T11:52:55.727Z,265
2017-10-03T11:53:56.066Z,330
2017-10-03T11:54:56.665Z,1465
2017-10-03T11:55:56.753Z,340
2017-10-03T11:56:56.737Z,300
2017-10-03T11:57:56.580Z,305
2017-10-03T11:58:55.577Z,275
2017-10-03T11:59:56.214Z,255
2017-10-03T12:00:56.123Z,225
2017-10-03T12:01:56.255Z,255
2017-10-03T12:02:56.638Z,360
2017-10-03T12:03:56.118Z,620
2017-10-03T12:04:55.880Z,890
2017-10-03T12:05:56.180Z,680
2017-10-03T12:06:58.909Z,2745
2017-10-03T12:07:57.549Z,2940
2017-10-03T12:08:56.771Z,1030
2017-10-03T12:09:55.915Z,2635
2017-10-03T12:10:56.170Z,2685
2017-10-03T12:11:56.655Z,2840
2017-10-03T12:12:56.150Z,3005
2017-10-03T12:13:57.139Z,2825
2017-10-03T12:14:56.219Z,2855
2017-10-03T12:15:56.648Z,805
2017-10-03T12:16:55.968Z,2545
2017-10-03T12:17:55.993Z,2500
2017-10-03T12:18:56.332Z,2430
2017-10-03T12:19:56.125Z,815
2017-10-03T12:20:56.150Z,2440
2017-10-03T12:21:56.142Z,625
2017-10-03T12:22:56.194Z,1775
2017-10-03T12:23:56.475Z,1060
2017-10-03T12:24:56.495Z,2795
2017-10-03T12:25:56.214Z,410
2017-10-03T12:26:56.247Z,440
2017-10-03T12:27:56.277Z,1640
2017-10-03T12:28:56.314Z,1345
2017-10-03T12:29:56.331Z,480
2017-10-03T12:30:56.361Z,355
2017-10-03T12:31:56.627Z,310
2017-10-03T12:32:56.429Z,280
2017-10-03T12:33:56.443Z,265
2017-10-03T12:34:57.126Z,255
2017-10-03T12:35:56.847Z,265
2017-10-03T12:36:56.598Z,265
2017-10-03T12:37:56.613Z,270
2017-10-03T12:38:56.587Z,290
2017-10-03T12:39:56.605Z,325
2017-10-03T12:40:56.708Z,390
2017-10-03T12:41:56.977Z,565
2017-10-03T12:42:56.681Z,870
2017-10-03T12:43:56.715Z,985
2017-10-03T12:44:56.756Z,530
2017-10-03T12:45:56.759Z,625
2017-10-03T12:46:57.182Z,525
2017-10-03T12:47:56.817Z,555
2017-10-03T12:48:57.121Z,1420
2017-10-03T12:49:56.852Z,2710
2017-10-03T12:50:56.896Z,2605
2017-10-03T12:51:57.220Z,2695
2017-10-03T12:52:57.287Z,2800
2017-10-03T12:53:57.276Z,2875
2017-10-03T12:54:57.414Z,1155
2017-10-03T12:55:57.156Z,1420
2017-10-03T12:56:57.057Z,640
2017-10-03T12:57:57.096Z,2040
2017-10-03T12:58:57.104Z,1175
2017-10-03T12:59:57.138Z,1695
2017-10-03T13:00:57.578Z,1015
2017-10-03T13:01:57.176Z,515
2017-10-03T13:02:57.215Z,580
2017-10-03T13:03:57.236Z,525
2017-10-03T13:04:57.266Z,435
2017-10-03T13:05:57.783Z,455
2017-10-03T13:06:57.320Z,630
2017-10-03T13:07:57.667Z,620
2017-10-03T13:08:57.377Z,450
2017-10-03T13:09:57.402Z,430
2017-10-03T13:10:57.444Z,590
2017-10-03T13:11:57.464Z,565
2017-10-03T13:12:57.560Z,615
2017-10-03T13:13:57.532Z,495
2017-10-03T13:14:57.538Z,510
2017-10-03T13:15:57.576Z,1175
2017-10-03T13:16:57.620Z,440
2017-10-03T13:17:57.930Z,400
2017-10-03T13:18:57.643Z,385
2017-10-03T13:19:57.990Z,400
2017-10-03T13:20:57.714Z,460
2017-10-03T13:21:57.725Z,475
2017-10-03T13:22:57.782Z,450
2017-10-03T13:23:58.555Z,465
2017-10-03T13:24:58.102Z,845
2017-10-03T13:25:57.816Z,3180
2017-10-03T13:26:57.849Z,1990
2017-10-03T13:27:57.873Z,1840
2017-10-03T13:28:58.815Z,850
2017-10-03T13:29:58.305Z,700
2017-10-03T13:30:58.024Z,2630
2017-10-03T13:31:58.294Z,3160
2017-10-03T13:32:58.011Z,3115
2017-10-03T13:33:58.335Z,3110
2017-10-03T13:34:58.052Z,3040
2017-10-03T13:35:58.082Z,1750
2017-10-03T13:36:58.567Z,3215
2017-10-03T13:37:59.174Z,3235
2017-10-03T13:38:58.184Z,2400
2017-10-03T13:39:58.207Z,2295
2017-10-03T13:40:58.244Z,1260
2017-10-03T13:41:58.276Z,1580
2017-10-03T13:42:58.278Z,930
2017-10-03T13:43:58.311Z,715
2017-10-03T13:44:59.532Z,625
2017-10-03T13:45:58.991Z,630
2017-10-03T13:46:58.909Z,690
2017-10-03T13:47:58.443Z,1150
2017-10-03T13:48:58.508Z,3485
2017-10-03T13:49:58.486Z,3260
2017-10-03T13:50:58.520Z,3265
2017-10-03T13:51:58.872Z,905
2017-10-03T13:52:59.222Z,1425
2017-10-03T13:53:58.647Z,3090
2017-10-03T13:54:58.632Z,3225
2017-10-03T13:55:59.483Z,3290
2017-10-03T13:56:58.999Z,3015
2017-10-03T13:57:58.804Z,2975
2017-10-03T13:58:59.199Z,3020
2017-10-03T13:59:58.798Z,3015
2017-10-03T14:00:58.821Z,2915
2017-10-03T14:01:59.159Z,2830
2017-10-03T14:02:58.865Z,2925
2017-10-03T14:03:59.526Z,3015
2017-10-03T14:04:58.945Z,3090
2017-10-03T14:05:58.981Z,3015
2017-10-03T14:06:59.307Z,3050
2017-10-03T14:07:59.826Z,3105
2017-10-03T14:09:00.202Z,2915
2017-10-03T14:09:59.485Z,2920
2017-10-03T14:10:59.542Z,750
2017-10-03T14:11:59.204Z,2940
2017-10-03T14:12:59.980Z,2830
2017-10-03T14:13:59.218Z,2825
2017-10-03T14:14:59.246Z,2800
2017-10-03T14:16:00.000Z,2625